Isle aux Morts, Canada
Current Conditions -  °F | °C
As of 7:00 AM on Thursday 23 Oct 2014 (Local Time) from CWZB Reporting Station
Clear Clear  
Wind Chill: 38°   Ceiling: Unl
Heat Index: 44°   Visibility: 9mi
Dew Point: 40°   Wind: 12mph
Humidity: 87%   Direction: 60°ENE
Pressure: 30.37"   Gusts: NA
Location:  47.59°N, 58.97°W
Report Text: CWZB 230900Z AUTO 06010KT 9SM NSC 06/04 A3037 RMK SLP283 T00650044 WSI/SWOB
Loading
Personal Weather Stations






























Interactive Weather Map New forecast layout! Learn more

10-Day Weather Forecast

Advertisements
Track Severe Weather on mobile